Time;durP1;ratioP1;P1;durP2;ratioP2;P2;SDS_P1;SDS_P2;PMS_P1;PMS_P2;Temp;Humidity;BMP_temperature;BMP_pressure;BME280_temperature;BME280_humidity;BME280_pressure;Samples;Min_cycle;Max_cycle;Signal;HPM_P1;HPM_P2
2022/09/05 04:01:15;;;;;;;8.77;5.97;;;16.90;99.90;;;;;;5632592;23;21063;-64
2022/09/05 04:03:46;;;;;;;8.50;6.87;;;16.90;99.90;;;;;;4978638;28;20442;-65
2022/09/05 04:06:20;;;;;;;6.90;6.30;;;16.90;99.90;;;;;;4978805;28;20438;-67
2022/09/05 04:08:52;;;;;;;8.13;7.30;;;16.90;99.90;;;;;;4978309;28;20434;-66
2022/09/05 04:11:31;;;;;;;6.90;6.30;;;16.80;99.90;;;;;;4978481;28;20478;-65
2022/09/05 04:14:02;;;;;;;7.90;6.77;;;16.70;99.90;;;;;;4978481;28;20853;-66
2022/09/05 04:16:32;;;;;;;8.13;7.43;;;16.70;99.90;;;;;;4978517;28;20438;-66
2022/09/05 04:19:10;;;;;;;10.53;8.10;;;16.70;99.90;;;;;;4978587;28;20474;-65
2022/09/05 04:21:43;;;;;;;7.70;7.03;;;16.70;99.90;;;;;;4978315;28;20478;-65
2022/09/05 04:24:15;;;;;;;6.27;5.67;;;16.70;99.90;;;;;;4978313;28;20458;-66
2022/09/05 04:27:05;;;;;;;7.67;6.80;;;16.70;99.90;;;;;;4978191;28;20442;-65
2022/09/05 04:29:43;;;;;;;6.77;6.30;;;16.70;99.90;;;;;;4978025;28;20469;-66
2022/09/05 04:32:25;;;;;;;7.20;6.60;;;16.70;99.90;;;;;;4978295;28;20478;-65
2022/09/05 04:35:25;;;;;;;7.90;7.20;;;16.70;99.90;;;;;;4978161;28;20439;-65
2022/09/05 04:37:58;;;;;;;20.43;6.60;;;16.70;99.90;;;;;;4977883;28;20466;-65
2022/09/05 04:40:50;;;;;;;7.40;6.80;;;16.70;99.90;;;;;;4977781;28;20443;-65
2022/09/05 04:43:39;;;;;;;6.73;6.13;;;16.60;99.90;;;;;;4975566;28;20462;-66
2022/09/05 04:46:18;;;;;;;6.90;6.40;;;16.60;99.90;;;;;;4977344;28;20438;-66
2022/09/05 04:48:55;;;;;;;7.17;6.67;;;16.50;99.90;;;;;;4977892;28;20438;-66
2022/09/05 04:51:49;;;;;;;6.43;5.97;;;16.50;99.90;;;;;;4977625;28;20993;-64
2022/09/05 04:54:28;;;;;;;6.03;5.50;;;16.50;99.90;;;;;;4970405;28;20454;-64
2022/09/05 04:57:00;;;;;;;6.50;5.97;;;16.40;99.90;;;;;;4977830;28;20489;-64
2022/09/05 04:59:33;;;;;;;6.37;5.90;;;16.40;99.90;;;;;;4977558;28;20463;-65
2022/09/05 05:02:04;;;;;;;6.00;5.50;;;16.40;99.90;;;;;;4977157;28;20490;-65
2022/09/05 05:04:33;;;;;;;6.70;6.07;;;16.40;99.90;;;;;;4977464;28;20439;-65
2022/09/05 05:07:06;;;;;;;6.60;6.10;;;16.30;99.90;;;;;;4977429;28;20488;-65
2022/09/05 05:09:43;;;;;;;6.20;5.80;;;16.30;99.90;;;;;;4977319;28;20494;-65
2022/09/05 05:12:21;;;;;;;6.73;6.10;;;16.40;99.90;;;;;;4977086;28;20541;-64
2022/09/05 05:14:52;;;;;;;5.70;5.30;;;16.30;99.90;;;;;;4977634;28;20458;-65
2022/09/05 05:17:29;;;;;;;5.40;5.00;;;16.30;99.90;;;;;;4977638;28;20447;-63
2022/09/05 05:20:04;;;;;;;5.70;5.30;;;16.30;99.90;;;;;;4977212;28;20458;-64
2022/09/05 05:22:31;;;;;;;5.63;5.13;;;16.50;99.90;;;;;;4977171;28;20474;-64
2022/09/05 05:25:00;;;;;;;4.60;4.30;;;16.60;99.90;;;;;;4976823;28;20961;-64
2022/09/05 05:27:33;;;;;;;4.60;4.20;;;16.80;99.90;;;;;;4976804;28;20465;-63
2022/09/05 05:30:04;;;;;;;5.17;4.77;;;17.00;99.90;;;;;;4976748;28;20447;-63
2022/09/05 05:32:35;;;;;;;4.57;4.27;;;17.20;99.90;;;;;;4976329;28;20970;-63
2022/09/05 05:35:09;;;;;;;4.97;4.57;;;17.30;99.90;;;;;;4976707;28;20443;-64
2022/09/05 05:37:41;;;;;;;5.80;4.90;;;17.30;99.90;;;;;;4976653;28;20783;-64
2022/09/05 05:40:13;;;;;;;8.23;4.90;;;17.40;99.90;;;;;;4976503;28;20439;-64
2022/09/05 05:42:41;;;;;;;5.50;5.00;;;17.40;99.90;;;;;;4976283;28;20973;-64
2022/09/05 05:45:17;;;;;;;6.57;6.07;;;17.40;99.90;;;;;;4976517;28;20455;-63
2022/09/05 05:47:46;;;;;;;4.83;4.43;;;17.40;99.90;;;;;;4976474;28;20449;-64
2022/09/05 05:50:32;;;;;;;5.67;5.10;;;17.40;99.90;;;;;;4976023;28;20451;-64
2022/09/05 05:53:28;;;;;;;5.13;4.73;;;17.60;99.90;;;;;;4976392;28;20533;-64
2022/09/05 05:56:21;;;;;;;5.90;5.30;;;17.80;99.90;;;;;;4976241;28;20446;-65
2022/09/05 05:59:08;;;;;;;5.80;5.37;;;18.00;99.90;;;;;;4976240;28;20463;-65
2022/09/05 06:02:16;;;;;;;5.90;5.40;;;18.30;99.90;;;;;;4976056;28;20487;-64
2022/09/05 06:05:21;;;;;;;6.17;5.60;;;18.60;99.90;;;;;;4975846;28;20439;-65
2022/09/05 06:08:03;;;;;;;7.20;5.20;;;18.80;99.90;;;;;;4975951;28;20450;-64
2022/09/05 06:11:07;;;;;;;6.17;5.63;;;18.90;99.90;;;;;;4976135;28;20893;-64
2022/09/05 06:14:23;;;;;;;7.50;5.13;;;19.20;99.90;;;;;;4976047;28;20810;-65
2022/09/05 06:17:10;;;;;;;5.30;4.80;;;19.60;99.90;;;;;;4938705;28;20452;-65
2022/09/05 06:20:17;;;;;;;5.10;4.60;;;20.00;99.90;;;;;;4973773;28;20482;-64
2022/09/05 06:23:25;;;;;;;9.20;5.80;;;20.30;99.90;;;;;;4975789;28;20451;-64
2022/09/05 06:26:20;;;;;;;5.47;5.03;;;20.50;99.90;;;;;;4976018;28;20812;-64
2022/09/05 06:28:56;;;;;;;6.20;5.80;;;20.80;99.90;;;;;;4977634;28;20486;-65
2022/09/05 06:31:48;;;;;;;6.83;5.23;;;21.10;99.90;;;;;;4977993;28;20490;-64
2022/09/05 06:34:31;;;;;;;6.20;4.83;;;21.30;99.90;;;;;;4976351;28;20445;-64
2022/09/05 06:37:05;;;;;;;9.97;5.17;;;21.70;99.90;;;;;;4975850;28;20447;-64
2022/09/05 06:39:52;;;;;;;5.50;5.00;;;22.00;99.90;;;;;;4975139;28;20471;-65
2022/09/05 06:42:28;;;;;;;9.17;5.60;;;22.50;99.90;;;;;;4975340;28;20485;-64
2022/09/05 06:45:07;;;;;;;5.80;5.00;;;23.00;99.90;;;;;;4975249;28;20443;-64
2022/09/05 06:47:36;;;;;;;5.93;5.20;;;23.60;99.90;;;;;;4975341;28;20434;-64
2022/09/05 06:50:10;;;;;;;7.97;5.30;;;23.80;99.90;;;;;;4975256;28;20824;-64
2022/09/05 06:53:13;;;;;;;5.80;5.10;;;24.30;99.90;;;;;;4975289;28;20447;-64
2022/09/05 06:55:53;;;;;;;9.10;5.20;;;24.60;99.90;;;;;;4974755;28;20458;-64
2022/09/05 06:59:10;;;;;;;6.17;5.00;;;24.70;99.90;;;;;;4975312;28;20467;-64
2022/09/05 07:01:45;;;;;;;8.07;4.83;;;24.70;99.90;;;;;;4974827;28;20486;-64
2022/09/05 07:04:25;;;;;;;11.00;4.43;;;25.10;99.90;;;;;;4975201;28;20446;-64
2022/09/05 07:07:03;;;;;;;5.47;4.83;;;25.20;99.90;;;;;;4975115;28;20438;-64
2022/09/05 07:09:37;;;;;;;5.27;4.37;;;25.50;99.90;;;;;;4975438;28;20493;-64
2022/09/05 07:12:17;;;;;;;4.90;4.60;;;25.80;99.90;;;;;;4974663;28;21004;-64
2022/09/05 07:14:56;;;;;;;4.90;4.43;;;26.10;99.90;;;;;;4975021;28;20446;-64
2022/09/05 07:17:33;;;;;;;4.93;4.50;;;26.60;99.90;;;;;;4974436;28;20443;-65
2022/09/05 07:20:02;;;;;;;5.10;4.17;;;26.80;99.90;;;;;;4974812;28;20467;-64
2022/09/05 07:22:33;;;;;;;4.70;3.93;;;27.10;99.90;;;;;;4974786;28;20533;-64
2022/09/05 07:25:05;;;;;;;4.00;3.70;;;27.30;99.60;;;;;;4974992;28;20537;-65
2022/09/05 07:27:38;;;;;;;6.47;3.80;;;27.50;99.60;;;;;;4974929;28;20858;-64
2022/09/05 07:30:07;;;;;;;4.57;3.77;;;27.70;98.00;;;;;;4974570;28;20443;-65
2022/09/05 07:32:42;;;;;;;7.37;3.60;;;28.00;97.10;;;;;;4974538;28;20886;-64
2022/09/05 07:35:16;;;;;;;3.90;3.40;;;28.40;96.00;;;;;;4974716;28;20443;-64
2022/09/05 07:37:45;;;;;;;6.80;3.57;;;28.60;94.90;;;;;;4974802;28;20438;-64
2022/09/05 07:40:16;;;;;;;6.70;3.50;;;28.90;93.50;;;;;;4974617;28;20529;-64
2022/09/05 07:42:45;;;;;;;3.03;2.83;;;29.00;92.40;;;;;;4974316;28;20910;-64
2022/09/05 07:45:21;;;;;;;2.70;2.60;;;29.10;92.10;;;;;;4974750;28;20459;-64
2022/09/05 07:47:58;;;;;;;3.57;3.00;;;29.50;91.20;;;;;;4974751;28;20446;-64
2022/09/05 07:50:26;;;;;;;3.43;3.13;;;29.90;89.50;;;;;;4974589;28;20466;-65
2022/09/05 07:52:56;;;;;;;2.70;2.60;;;30.30;86.70;;;;;;4974672;28;20853;-64
2022/09/05 07:55:26;;;;;;;2.80;2.60;;;30.70;85.00;;;;;;4974721;28;20493;-64
2022/09/05 07:57:58;;;;;;;3.30;3.03;;;31.00;83.70;;;;;;4975603;28;20439;-63
2022/09/05 08:00:28;;;;;;;2.60;2.50;;;31.30;82.00;;;;;;4974411;28;20516;-65
2022/09/05 08:02:57;;;;;;;4.17;2.70;;;31.40;80.00;;;;;;4974673;28;20447;-66
2022/09/05 08:05:27;;;;;;;2.63;2.53;;;31.70;79.40;;;;;;4974532;28;20466;-66
2022/09/05 08:07:57;;;;;;;5.13;2.40;;;32.30;77.40;;;;;;4974574;28;20496;-66
2022/09/05 08:10:30;;;;;;;3.37;2.60;;;33.00;72.90;;;;;;4974168;28;20508;-66
2022/09/05 08:13:02;;;;;;;3.70;2.50;;;33.50;70.90;;;;;;4974449;28;20537;-65
2022/09/05 08:15:30;;;;;;;2.57;2.33;;;34.30;68.20;;;;;;4974511;28;20461;-65
2022/09/05 08:18:11;;;;;;;2.60;2.50;;;34.70;65.80;;;;;;4974453;28;20461;-66
2022/09/05 08:20:45;;;;;;;2.60;2.40;;;35.10;63.10;;;;;;4974355;28;20481;-65
2022/09/05 08:23:26;;;;;;;2.50;2.30;;;35.50;61.30;;;;;;4974311;28;20825;-66
2022/09/05 08:25:58;;;;;;;2.93;2.70;;;35.60;59.90;;;;;;4974512;28;20438;-66
2022/09/05 08:28:31;;;;;;;2.10;2.00;;;35.40;59.10;;;;;;4974427;28;20442;-67
2022/09/05 08:31:05;;;;;;;4.30;2.47;;;35.50;59.00;;;;;;4977699;28;20474;-66
2022/09/05 08:33:35;;;;;;;2.63;2.50;;;35.60;58.20;;;;;;4977544;28;20908;-66
2022/09/05 08:36:07;;;;;;;2.10;2.00;;;35.60;58.80;;;;;;4977771;28;20557;-66
2022/09/05 08:38:35;;;;;;;3.40;2.23;;;35.80;56.50;;;;;;4977337;28;20914;-67
2022/09/05 08:41:08;;;;;;;2.60;2.40;;;36.00;56.20;;;;;;4977540;28;20588;-67
2022/09/05 08:43:38;;;;;;;6.07;2.23;;;36.30;56.00;;;;;;4977825;28;20435;-67
2022/09/05 08:46:13;;;;;;;3.07;2.10;;;36.40;55.50;;;;;;4977952;28;20525;-67
2022/09/05 08:49:07;;;;;;;2.40;2.10;;;36.50;55.40;;;;;;4977603;28;20441;-67
2022/09/05 08:51:40;;;;;;;2.57;2.37;;;36.50;55.70;;;;;;4977370;28;20540;-67
2022/09/05 08:54:17;;;;;;;2.63;2.10;;;36.80;55.30;;;;;;4977519;28;20442;-67
2022/09/05 08:56:56;;;;;;;3.03;2.00;;;36.70;54.20;;;;;;4977375;28;20450;-67
2022/09/05 08:59:44;;;;;;;3.93;2.17;;;36.90;55.10;;;;;;4977504;28;20873;-68
2022/09/05 09:02:44;;;;;;;2.53;1.80;;;37.50;54.10;;;;;;4975199;28;20541;-67
2022/09/05 09:05:21;;;;;;;2.30;2.13;;;38.20;52.30;;;;;;4969045;28;20454;-66
2022/09/05 09:07:57;;;;;;;2.77;2.60;;;37.90;50.30;;;;;;4977273;28;20796;-66
2022/09/05 09:10:33;;;;;;;2.10;2.00;;;37.50;51.20;;;;;;4977009;28;20906;-66
2022/09/05 09:13:27;;;;;;;2.23;2.13;;;37.60;51.30;;;;;;4977084;28;20438;-66
2022/09/05 09:16:03;;;;;;;2.30;2.20;;;37.90;51.50;;;;;;4976799;28;20903;-66
2022/09/05 09:18:41;;;;;;;2.00;1.90;;;38.20;51.20;;;;;;4976950;28;20442;-67
2022/09/05 09:21:23;;;;;;;1.93;1.83;;;37.90;49.90;;;;;;4976997;28;20470;-66
2022/09/05 09:23:55;;;;;;;2.27;2.07;;;38.40;50.00;;;;;;4977091;28;20443;-66
2022/09/05 09:26:27;;;;;;;2.93;2.00;;;38.60;49.20;;;;;;4977192;28;20838;-66
2022/09/05 09:29:01;;;;;;;4.13;2.27;;;38.70;48.90;;;;;;4976984;28;20442;-66
2022/09/05 09:31:36;;;;;;;2.40;2.30;;;38.50;48.90;;;;;;4977504;28;20485;-65
2022/09/05 09:34:31;;;;;;;2.60;2.40;;;38.60;49.10;;;;;;4976644;28;20813;-65
2022/09/05 09:37:22;;;;;;;3.23;2.30;;;38.20;48.40;;;;;;4976545;28;20901;-65
2022/09/05 09:40:21;;;;;;;1.60;1.60;;;37.70;50.80;;;;;;4977125;28;20529;-65
2022/09/05 09:42:50;;;;;;;2.53;2.23;;;38.30;49.70;;;;;;4976327;28;20980;-65
2022/09/05 09:45:44;;;;;;;3.43;2.87;;;38.00;48.50;;;;;;4976584;28;20462;-65
2022/09/05 09:48:47;;;;;;;2.47;2.17;;;38.00;50.70;;;;;;4974476;28;20466;-66
2022/09/05 09:51:35;;;;;;;3.10;1.80;;;38.70;48.90;;;;;;4935431;29;20479;-66
2022/09/05 09:54:33;;;;;;;2.40;2.30;;;39.50;48.20;;;;;;4972204;28;20512;-66
2022/09/05 09:57:27;;;;;;;1.97;1.97;;;39.90;46.40;;;;;;4976283;28;20454;-66
2022/09/05 10:00:16;;;;;;;2.20;2.10;;;40.10;46.30;;;;;;4975970;28;20489;-66
2022/09/05 10:03:02;;;;;;;1.90;1.80;;;39.90;46.40;;;;;;4973379;28;20454;-66
2022/09/05 10:05:44;;;;;;;2.57;2.37;;;39.90;45.20;;;;;;4976295;28;20434;-66
2022/09/05 10:08:32;;;;;;;6.13;2.00;;;39.80;47.50;;;;;;4976334;28;20442;-66
2022/09/05 10:11:37;;;;;;;2.10;2.00;;;40.20;45.20;;;;;;4976305;28;20223;-66
2022/09/05 10:14:49;;;;;;;2.17;2.07;;;40.30;46.50;;;;;;4953399;28;20211;-65
2022/09/05 10:17:34;;;;;;;2.13;2.03;;;40.70;45.80;;;;;;4976081;28;20210;-66
2022/09/05 10:20:36;;;;;;;2.73;1.80;;;40.80;44.20;;;;;;4976077;28;20257;-66
2022/09/05 10:23:34;;;;;;;1.97;1.87;;;40.90;44.10;;;;;;4952981;28;20285;-66
2022/09/05 10:26:38;;;;;;;4.33;2.50;;;41.30;43.60;;;;;;4976187;28;20184;-66
2022/09/05 10:29:10;;;;;;;1.80;1.70;;;41.40;42.90;;;;;;4976137;28;20190;-67
2022/09/05 10:31:55;;;;;;;2.43;2.23;;;41.00;43.20;;;;;;4976055;28;20222;-66
2022/09/05 10:34:24;;;;;;;2.27;2.00;;;40.80;43.20;;;;;;4975821;28;20282;-66
2022/09/05 10:36:53;;;;;;;1.97;1.87;;;41.00;42.10;;;;;;4975879;28;20195;-66
2022/09/05 10:39:25;;;;;;;2.30;2.20;;;40.80;41.90;;;;;;4975709;28;20254;-66
2022/09/05 10:41:57;;;;;;;2.00;1.90;;;40.80;42.10;;;;;;4975702;28;20229;-67
2022/09/05 10:44:34;;;;;;;2.30;2.20;;;40.20;42.50;;;;;;4975587;28;20187;-67
2022/09/05 10:47:16;;;;;;;1.97;1.87;;;40.10;42.70;;;;;;4975328;28;20660;-66
2022/09/05 10:49:44;;;;;;;1.70;1.70;;;40.10;42.10;;;;;;4975642;28;20442;-66
2022/09/05 10:52:14;;;;;;;1.70;1.60;;;40.10;42.90;;;;;;4974859;28;20473;-67
2022/09/05 10:54:56;;;;;;;1.90;1.80;;;40.30;42.10;;;;;;4975310;28;20199;-66
2022/09/05 10:57:38;;;;;;;1.70;1.70;;;40.10;41.20;;;;;;4975507;28;20238;-66
2022/09/05 11:00:41;;;;;;;1.90;1.80;;;40.30;41.60;;;;;;4975394;28;20207;-66
2022/09/05 11:03:14;;;;;;;1.90;1.80;;;40.00;43.60;;;;;;4961428;28;20964;-66
2022/09/05 11:05:51;;;;;;;2.37;2.27;;;39.90;42.00;;;;;;4975500;28;20442;-65
2022/09/05 11:08:26;;;;;;;2.10;2.00;;;39.80;42.20;;;;;;4975157;28;20932;-66
2022/09/05 11:11:02;;;;;;;2.00;1.90;;;39.30;42.40;;;;;;4975320;28;20565;-66
2022/09/05 11:13:43;;;;;;;2.20;2.10;;;38.80;42.60;;;;;;4975318;28;20437;-66
2022/09/05 11:16:25;;;;;;;2.07;1.90;;;38.00;44.30;;;;;;4975371;28;20534;-66
2022/09/05 11:18:59;;;;;;;3.30;2.10;;;37.80;42.60;;;;;;4975839;28;20490;-66
2022/09/05 11:21:40;;;;;;;2.37;1.93;;;37.40;43.70;;;;;;4974964;28;20490;-67
2022/09/05 11:24:23;;;;;;;2.97;1.90;;;37.00;44.60;;;;;;4976146;28;20493;-66
2022/09/05 11:26:57;;;;;;;3.00;1.97;;;37.00;44.20;;;;;;4975991;28;20450;-65
2022/09/05 11:29:33;;;;;;;2.57;2.13;;;36.40;44.40;;;;;;4976370;28;20449;-66
2022/09/05 11:32:19;;;;;;;2.10;2.00;;;36.10;47.00;;;;;;4975624;28;20927;-66
2022/09/05 11:34:59;;;;;;;2.03;1.93;;;35.80;43.90;;;;;;4975846;28;20469;-67
2022/09/05 11:37:45;;;;;;;3.60;2.20;;;35.50;44.80;;;;;;4975625;28;20917;-66
2022/09/05 11:40:35;;;;;;;2.30;2.00;;;35.30;44.70;;;;;;4975466;28;20827;-65
2022/09/05 11:43:30;;;;;;;2.10;1.90;;;35.00;44.50;;;;;;4955426;28;20454;-65
2022/09/05 11:46:26;;;;;;;3.80;2.10;;;34.70;46.00;;;;;;4975759;28;20446;-65
2022/09/05 11:49:23;;;;;;;2.03;1.93;;;34.50;46.60;;;;;;4975759;28;20462;-65
2022/09/05 11:52:24;;;;;;;1.97;1.87;;;34.50;45.00;;;;;;4975186;28;20808;-66
2022/09/05 11:55:19;;;;;;;2.40;2.20;;;34.10;43.80;;;;;;4975571;28;20439;-65
2022/09/05 11:57:59;;;;;;;2.10;2.00;;;34.10;45.30;;;;;;4975548;28;20466;-65
2022/09/05 12:00:33;;;;;;;2.07;1.97;;;33.80;45.10;;;;;;4975132;28;20469;-64
2022/09/05 12:03:41;;;;;;;1.77;1.67;;;33.80;45.40;;;;;;4976446;28;20438;-63
2022/09/05 12:06:29;;;;;;;1.90;1.80;;;34.10;44.30;;;;;;4979032;28;20445;-65
2022/09/05 12:09:01;;;;;;;2.13;2.10;;;34.10;45.20;;;;;;4978729;28;20445;-66
2022/09/05 12:11:43;;;;;;;2.43;2.33;;;34.30;45.80;;;;;;4978914;28;20474;-65
2022/09/05 12:14:31;;;;;;;2.40;1.80;;;34.30;46.00;;;;;;4978474;28;20446;-66
2022/09/05 12:17:06;;;;;;;2.20;2.00;;;34.60;46.30;;;;;;4978539;28;20438;-66
2022/09/05 12:19:41;;;;;;;5.60;2.50;;;34.70;46.30;;;;;;4978200;28;20448;-66
2022/09/05 12:22:37;;;;;;;2.43;2.33;;;34.60;45.30;;;;;;4978337;28;20483;-66
2022/09/05 12:25:44;;;;;;;2.00;1.90;;;34.70;46.00;;;;;;4978566;28;20481;-65
2022/09/05 12:28:14;;;;;;;2.33;2.13;;;34.60;45.40;;;;;;4958277;28;20586;-65
2022/09/05 12:30:42;;;;;;;2.30;2.10;;;34.40;43.30;;;;;;4978250;28;20513;-65
2022/09/05 12:33:26;;;;;;;2.17;2.00;;;34.20;44.30;;;;;;4978669;28;20454;-65
2022/09/05 12:36:06;;;;;;;3.27;2.03;;;34.10;44.80;;;;;;4979156;28;20436;-65
2022/09/05 12:38:41;;;;;;;1.67;1.67;;;34.10;43.70;;;;;;4979339;28;20442;-65
2022/09/05 12:41:11;;;;;;;2.27;2.17;;;34.00;44.60;;;;;;4977580;28;20485;-65
2022/09/05 12:43:44;;;;;;;2.20;2.00;;;34.10;46.50;;;;;;4977586;28;20835;-65
2022/09/05 12:46:20;;;;;;;1.93;1.83;;;34.20;45.20;;;;;;4978035;28;20472;-65
2022/09/05 12:48:54;;;;;;;2.13;2.03;;;34.50;44.70;;;;;;4977615;28;20474;-65
2022/09/05 12:51:28;;;;;;;2.30;1.90;;;34.60;44.50;;;;;;4977931;28;20474;-66
2022/09/05 12:53:59;;;;;;;2.33;2.23;;;34.70;44.10;;;;;;4977874;28;20541;-65
2022/09/05 12:56:32;;;;;;;2.83;2.07;;;34.80;43.60;;;;;;4977870;28;20449;-66
2022/09/05 12:59:00;;;;;;;1.90;1.80;;;34.60;43.50;;;;;;4977794;28;20449;-66
2022/09/05 13:01:30;;;;;;;1.83;1.80;;;34.40;43.90;;;;;;4976989;28;20494;-66
2022/09/05 13:04:01;;;;;;;2.17;2.07;;;34.00;44.20;;;;;;4977052;28;20443;-65
2022/09/05 13:06:34;;;;;;;3.23;2.17;;;33.60;44.10;;;;;;4977396;28;20443;-65
2022/09/05 13:09:05;;;;;;;4.03;2.30;;;33.30;45.60;;;;;;4977226;28;20453;-65
2022/09/05 13:11:39;;;;;;;2.30;2.20;;;33.00;46.00;;;;;;4977114;28;20470;-65
2022/09/05 13:14:17;;;;;;;2.30;2.20;;;32.80;45.80;;;;;;4976844;28;20465;-65
2022/09/05 13:16:47;;;;;;;2.60;2.40;;;32.70;45.80;;;;;;4977004;28;20439;-65
2022/09/05 13:19:24;;;;;;;2.33;2.13;;;32.80;47.00;;;;;;4976887;28;20532;-65
2022/09/05 13:21:56;;;;;;;2.50;2.40;;;33.00;46.20;;;;;;4976666;28;20984;-65
2022/09/05 13:24:29;;;;;;;2.27;2.17;;;33.00;45.40;;;;;;4976964;28;20446;-65
2022/09/05 13:26:58;;;;;;;2.37;2.17;;;32.80;46.40;;;;;;4976909;28;20447;-65
2022/09/05 13:29:36;;;;;;;2.07;1.97;;;32.50;47.40;;;;;;4976766;28;20462;-65
2022/09/05 13:32:09;;;;;;;1.50;1.50;;;32.30;47.60;;;;;;4976518;28;21000;-65
2022/09/05 13:34:42;;;;;;;2.10;2.00;;;32.30;48.60;;;;;;4976700;28;20490;-65
2022/09/05 13:37:15;;;;;;;2.47;2.37;;;32.30;47.50;;;;;;4976536;28;20475;-65
2022/09/05 13:39:53;;;;;;;2.10;1.90;;;32.60;48.20;;;;;;4976364;28;20779;-65
2022/09/05 13:42:22;;;;;;;1.77;1.77;;;32.80;48.50;;;;;;4976942;28;20482;-65
2022/09/05 13:44:53;;;;;;;2.17;2.07;;;33.10;47.50;;;;;;4976253;28;20965;-65
2022/09/05 13:47:40;;;;;;;2.20;2.17;;;33.20;47.50;;;;;;4976378;28;20537;-65
2022/09/05 13:50:21;;;;;;;2.23;2.10;;;33.20;47.50;;;;;;4974430;28;20462;-65
2022/09/05 13:52:54;;;;;;;2.33;2.23;;;33.20;48.40;;;;;;4976977;28;20446;-65
2022/09/05 13:55:24;;;;;;;2.20;2.10;;;33.10;46.70;;;;;;4976188;28;20450;-65
2022/09/05 13:57:55;;;;;;;2.47;2.10;;;33.30;46.90;;;;;;4977153;28;20567;-65
2022/09/05 14:01:04;;;;;;;2.20;2.10;;;33.30;46.90;;;;;;4975980;28;20450;-65
2022/09/05 14:04:05;;;;;;;2.50;2.30;;;33.40;48.50;;;;;;4976121;28;20533;-65
2022/09/05 14:07:09;;;;;;;2.40;2.30;;;33.20;48.30;;;;;;4976356;28;20494;-65
2022/09/05 14:10:01;;;;;;;2.13;2.00;;;33.40;47.50;;;;;;4964427;28;20456;-65
2022/09/05 14:12:35;;;;;;;2.87;2.30;;;33.60;49.70;;;;;;4975973;28;20470;-65
2022/09/05 14:15:15;;;;;;;5.13;2.00;;;33.80;47.50;;;;;;4975848;28;21013;-65
2022/09/05 14:17:56;;;;;;;2.40;2.20;;;33.80;46.30;;;;;;4976068;28;20442;-65
2022/09/05 14:23:14;;;;;;;2.30;2.07;;;33.60;46.20;;;;;;4975859;28;20426;-65
2022/09/05 14:25:46;;;;;;;3.23;2.20;;;33.60;46.50;;;;;;4975615;28;20449;-65
2022/09/05 14:28:21;;;;;;;2.00;1.90;;;33.60;46.00;;;;;;4975152;28;20446;-65
2022/09/05 14:30:51;;;;;;;2.23;2.03;;;33.40;47.00;;;;;;4975866;28;20474;-65
2022/09/05 14:33:41;;;;;;;2.20;2.10;;;33.40;46.30;;;;;;4975822;28;20457;-65
2022/09/05 14:36:20;;;;;;;2.27;2.17;;;33.30;47.90;;;;;;4975603;28;20446;-65
2022/09/05 14:39:04;;;;;;;2.13;2.03;;;33.40;47.20;;;;;;4975282;28;20474;-65
2022/09/05 14:41:55;;;;;;;2.53;2.43;;;33.40;47.50;;;;;;4975474;28;20482;-65
2022/09/05 14:44:48;;;;;;;2.23;2.13;;;33.50;47.00;;;;;;4975176;28;20914;-65
2022/09/05 14:47:45;;;;;;;2.23;2.23;;;33.60;47.60;;;;;;4975112;28;20915;-65
2022/09/05 14:50:53;;;;;;;2.30;2.20;;;33.40;47.30;;;;;;4963215;28;20834;-65
2022/09/05 14:53:23;;;;;;;2.07;1.97;;;33.30;47.80;;;;;;4960564;28;20450;-65
2022/09/05 14:55:56;;;;;;;2.20;2.10;;;33.40;48.80;;;;;;4975635;28;20454;-65
2022/09/05 14:58:27;;;;;;;2.43;2.33;;;33.30;47.00;;;;;;4975000;28;20984;-65
2022/09/05 15:00:58;;;;;;;2.40;2.30;;;33.30;48.80;;;;;;4974961;28;20486;-65
2022/09/05 15:03:35;;;;;;;1.97;1.87;;;33.20;47.00;;;;;;4975154;28;20446;-65
2022/09/05 15:06:13;;;;;;;4.33;2.40;;;33.00;47.00;;;;;;4975073;28;20438;-65
2022/09/05 15:08:40;;;;;;;2.67;2.40;;;33.10;47.80;;;;;;4975099;28;20458;-65
2022/09/05 15:11:09;;;;;;;2.07;1.97;;;33.20;46.90;;;;;;4975025;28;20470;-65
2022/09/05 15:13:43;;;;;;;2.27;2.13;;;33.30;47.50;;;;;;4975058;28;20493;-65
2022/09/05 15:16:12;;;;;;;2.63;2.17;;;33.30;47.80;;;;;;4975046;28;20443;-65
2022/09/05 15:18:43;;;;;;;2.40;2.20;;;33.30;47.20;;;;;;4974997;28;20459;-65
2022/09/05 15:21:26;;;;;;;1.97;1.87;;;33.40;46.30;;;;;;4974570;28;20485;-65
2022/09/05 15:23:59;;;;;;;1.90;1.77;;;33.30;48.10;;;;;;4974603;28;20438;-65
2022/09/05 15:26:29;;;;;;;2.10;1.90;;;33.20;46.30;;;;;;4974741;28;20914;-65
2022/09/05 15:29:09;;;;;;;2.20;2.10;;;33.10;46.90;;;;;;4975104;28;20446;-65
2022/09/05 15:31:36;;;;;;;2.30;2.20;;;32.90;47.40;;;;;;4974870;28;20557;-66
2022/09/05 15:34:24;;;;;;;2.30;2.20;;;32.80;47.90;;;;;;4975019;28;20458;-65
2022/09/05 15:36:52;;;;;;;2.30;2.10;;;32.70;46.30;;;;;;4974583;28;20909;-65
2022/09/05 15:39:20;;;;;;;2.47;2.13;;;32.80;46.90;;;;;;4977727;28;20946;-65
2022/09/05 15:41:47;;;;;;;2.00;1.90;;;32.70;47.30;;;;;;4978809;28;20486;-65
2022/09/05 15:44:22;;;;;;;2.40;2.20;;;32.70;47.90;;;;;;4978591;28;20849;-65
2022/09/05 15:46:58;;;;;;;1.97;1.97;;;32.60;48.30;;;;;;4978779;28;20449;-65
2022/09/05 15:49:30;;;;;;;2.10;2.00;;;32.50;47.30;;;;;;4978695;28;20438;-65
2022/09/05 15:51:58;;;;;;;2.10;2.00;;;32.40;48.00;;;;;;4978529;28;20478;-65
2022/09/05 15:54:28;;;;;;;2.40;2.20;;;32.40;49.00;;;;;;4978546;28;20458;-65
2022/09/05 15:56:58;;;;;;;4.17;2.37;;;32.30;47.50;;;;;;4978317;28;20462;-65
2022/09/05 15:59:31;;;;;;;2.70;2.10;;;32.20;48.60;;;;;;4978372;28;20530;-65
2022/09/05 16:01:58;;;;;;;3.10;2.53;;;32.10;49.20;;;;;;4977845;28;20532;-65
2022/09/05 16:04:26;;;;;;;2.03;1.93;;;32.10;49.80;;;;;;4978317;28;20799;-65
2022/09/05 16:06:57;;;;;;;2.03;1.93;;;32.00;49.10;;;;;;4978212;28;20454;-65
2022/09/05 16:09:35;;;;;;;2.27;2.00;;;31.90;48.40;;;;;;4978236;28;20442;-66
2022/09/05 16:12:07;;;;;;;2.33;2.23;;;31.60;48.70;;;;;;4978438;28;20470;-65
2022/09/05 16:14:42;;;;;;;3.30;2.00;;;31.60;48.70;;;;;;4978305;28;20493;-65
2022/09/05 16:17:20;;;;;;;2.40;2.30;;;31.40;48.40;;;;;;4977654;28;20784;-66
2022/09/05 16:19:49;;;;;;;2.50;2.20;;;31.20;48.80;;;;;;4978118;28;20518;-65
2022/09/05 16:22:19;;;;;;;2.30;2.13;;;31.10;49.40;;;;;;4977531;28;20553;-65
2022/09/05 16:24:49;;;;;;;2.30;2.20;;;31.00;49.00;;;;;;4977963;28;20834;-65
2022/09/05 16:27:33;;;;;;;3.03;2.40;;;30.80;49.40;;;;;;4977529;28;20438;-65
2022/09/05 16:30:02;;;;;;;2.10;2.00;;;30.70;49.60;;;;;;4977915;28;20807;-65
2022/09/05 16:32:32;;;;;;;2.50;2.30;;;30.50;49.50;;;;;;4977508;28;20978;-65
2022/09/05 16:35:03;;;;;;;4.37;2.37;;;30.40;49.50;;;;;;4977712;28;20461;-66
2022/09/05 16:37:36;;;;;;;2.40;2.20;;;30.30;50.70;;;;;;4977903;28;20450;-65
2022/09/05 16:40:12;;;;;;;4.23;2.40;;;30.20;52.30;;;;;;4980190;28;20450;-65
2022/09/05 16:42:42;;;;;;;2.10;2.00;;;30.10;51.40;;;;;;4978527;28;20849;-65
2022/09/05 16:45:20;;;;;;;2.63;2.53;;;30.00;51.20;;;;;;4978285;28;20443;-65
2022/09/05 16:47:54;;;;;;;2.63;2.47;;;29.90;51.10;;;;;;4977631;28;20439;-65
2022/09/05 16:50:28;;;;;;;2.73;2.30;;;29.80;51.40;;;;;;4976413;28;20474;-65
2022/09/05 16:53:04;;;;;;;5.60;2.90;;;29.70;52.40;;;;;;4977133;28;20445;-66
2022/09/05 16:55:35;;;;;;;3.73;2.27;;;29.60;54.30;;;;;;4977418;28;20438;-65
2022/09/05 16:58:09;;;;;;;4.03;2.30;;;29.50;54.60;;;;;;4977652;28;20442;-65
2022/09/05 17:01:18;;;;;;;10.63;4.07;;;29.40;55.40;;;;;;4977155;28;20462;-65
2022/09/05 17:03:53;;;;;;;8.83;3.10;;;29.40;57.10;;;;;;4977223;28;20491;-65
2022/09/05 17:06:23;;;;;;;5.47;3.03;;;29.20;57.50;;;;;;4977383;28;20569;-66
2022/09/05 17:08:52;;;;;;;6.50;2.60;;;29.10;57.90;;;;;;4977268;28;20435;-65
2022/09/05 17:11:22;;;;;;;3.40;2.80;;;29.00;58.20;;;;;;4977160;28;20502;-65
2022/09/05 17:13:51;;;;;;;4.93;2.30;;;28.80;57.70;;;;;;4977488;28;20454;-64
2022/09/05 17:16:29;;;;;;;3.40;2.50;;;28.70;57.90;;;;;;4977292;28;20450;-64
2022/09/05 17:18:59;;;;;;;2.90;2.80;;;28.60;58.20;;;;;;4977155;28;20474;-65
2022/09/05 17:21:31;;;;;;;3.00;2.80;;;28.50;58.20;;;;;;4976930;28;20525;-65
2022/09/05 17:24:02;;;;;;;2.93;2.73;;;28.40;58.60;;;;;;4977117;28;20446;-64
2022/09/05 17:26:32;;;;;;;13.03;3.17;;;28.30;57.90;;;;;;4976918;28;20450;-65
2022/09/05 17:29:05;;;;;;;7.53;2.60;;;28.20;59.20;;;;;;4977264;28;20454;-65
2022/09/05 17:31:38;;;;;;;3.30;2.90;;;28.10;59.80;;;;;;4976828;28;20474;-65
2022/09/05 17:34:47;;;;;;;4.80;3.07;;;28.10;60.80;;;;;;4977042;28;20478;-65
2022/09/05 17:37:47;;;;;;;4.03;3.30;;;28.00;61.10;;;;;;4976581;28;20443;-66
2022/09/05 17:40:43;;;;;;;7.07;4.30;;;27.90;61.10;;;;;;4968579;28;20455;-65
2022/09/05 17:43:21;;;;;;;4.30;2.93;;;27.60;61.50;;;;;;4976825;28;20863;-66
2022/09/05 17:45:55;;;;;;;5.10;3.37;;;27.50;63.00;;;;;;4977034;28;20462;-66
2022/09/05 17:49:01;;;;;;;4.70;3.30;;;27.40;63.90;;;;;;4977051;28;20439;-66